Daily Summary

Last 30 Days

Daily Data | Pacific/Honolulu
as of 12/7/21 12:30 PM HST
Date Daily Max Temp (°F) Time of Max Temp Daily Min Temp (°F) Time of Min Temp Daily Rain (In) Seasonal Rainfall (In) Wind Spd (mph) Daily Max Wind (mph) Time of Max Wind Max Wind Dir (°) Daily Solar Rad (Cal/cm2) Daily ETo (in) Dew Pt (°F) Max RH (%) Min RH (%) Max Press (inHg) Time of Max Press Min Press (inHg) Time of Min Press Bat Volt Min Day (V)
12/6/21 77.7 0624 69.5 1436 7.07 33.29 4.7 28.8 0317 S | 171 42 0.027 70.4 97 76 30.06 2046 29.89 0323 12.7
12/5/21 75.7 2257 66.8 0152 2.15 26.22 3.2 29.7 2306 S | 189 83 0.032 66.9 94 72 29.95 2336 29.71 0403 12.7
12/4/21 74.5 1150 61.9 0450 0.00 24.07 3.5 18.6 1203 SW | 233 251 0.082 58.7 84 55 29.83 0001 29.66 1411 12.7
12/3/21 77.6 1244 68.8 2341 0.13 24.07 3.8 23.2 1352 NNE | 29 280 0.093 64.8 94 56 29.99 0006 29.76 1619 12.7
12/2/21 82.4 1340 70.1 0601 0.09 23.94 3.2 20.5 2042 SW | 236 409 0.131 69.2 91 63 30.06 1001 29.94 1556 12.7
12/1/21 84.3 1306 75.3 2355 0.00 23.85 6.1 20.0 1457 NNE | 26 387 0.147 68.3 82 60 30.04 2158 29.91 1502 12.7
11/30/21 82.4 1348 73.4 0657 0.08 23.85 6.4 23.8 1043 NE | 34 379 0.132 68.2 85 65 30.02 2129 29.90 1428 12.7
11/29/21 78.7 1459 72.4 0517 0.10 23.77 6.4 31.2 1116 NNE | 25 275 0.116 64.6 82 58 30.07 0004 29.90 1553 12.7
11/28/21 79.8 1451 70.0 0432 0.20 23.67 5.2 32.3 2347 ENE | 72 262 0.099 66.4 94 60 30.08 2309 29.93 1518 12.8
11/27/21 79.4 1357 70.4 0655 0.02 23.47 5.0 19.3 1404 NE | 44 342 0.117 66.6 90 65 30.07 2311 29.92 1516 12.8
11/26/21 80.9 1513 73.9 0624 0.00 23.45 7.6 23.6 1714 ENE | 63 442 0.179 63.2 72 55 30.14 0008 29.99 1415 12.7
11/25/21 82.9 1335 71.6 0649 0.00 23.45 5.7 23.8 1305 NNE | 27 414 0.153 67.2 84 59 30.15 2201 30.03 1423 12.7
11/24/21 82.6 1219 72.3 0724 0.00 23.45 4.9 18.0 1254 NE | 40 368 0.136 66.3 77 55 30.14 2213 30.02 1438 12.7
11/23/21 82.8 1238 74.2 0323 0.00 23.45 6.3 19.8 1627 NNE | 33 442 0.167 67.0 84 57 30.14 0859 29.99 1439 12.8
11/22/21 80.7 1336 74.9 2003 0.01 23.45 6.1 18.7 1009 NE | 44 374 0.129 69.4 86 69 30.14 0909 30.02 1413 12.7
11/21/21 82.9 1118 76.0 0704 0.00 23.44 6.4 27.4 1624 NE | 51 428 0.166 66.9 75 53 30.13 0925 30.01 1624 12.7
11/20/21 85.0 1215 76.2 0422 0.00 23.44 3.7 14.9 1238 ESE | 108 418 0.147 68.2 77 54 30.13 2211 30.00 1449 12.7
11/19/21 84.3 1333 74.8 0609 0.00 23.44 5.6 21.3 1507 NE | 43 434 0.160 68.9 83 58 30.09 2239 29.94 1449 12.7
11/18/21 84.8 1226 73.1 0706 0.00 23.44 5.6 20.1 1644 NE | 50 408 0.145 71.4 91 65 30.05 2254 29.92 1419 12.7
11/17/21 87.7 1224 72.0 0555 0.00 23.44 3.5 17.7 1621 NNE | 33 419 0.146 71.6 94 57 30.05 0926 29.93 1421 12.7
11/16/21 82.1 1344 74.2 0257 0.09 23.44 2.4 11.1 1345 WSW | 245 209 0.069 72.4 92 73 30.05 2135 29.94 1400 12.8
11/15/21 81.8 1326 71.6 0634 0.00 23.35 3.5 18.2 1829 NE | 41 171 0.070 69.0 89 62 30.03 1008 29.92 1446 12.7
11/14/21 79.5 0931 70.9 0536 0.17 23.35 3.1 20.3 1112 S | 175 122 0.047 68.6 91 74 30.02 2120 29.92 1430 12.7
11/13/21 84.2 1307 72.2 0658 0.00 23.18 3.2 10.4 1235 S | 191 340 0.118 66.7 86 46 30.02 0019 29.90 1341 12.7
11/12/21 83.8 1218 71.7 0706 0.00 23.18 4.3 15.2 0255 E | 84 445 0.159 66.8 80 56 30.06 0003 29.92 1544 12.7
11/11/21 86.1 1151 73.4 0715 0.00 23.18 4.9 20.6 1718 NE | 35 362 0.144 65.8 76 42 30.09 0859 29.97 1427 12.7
11/10/21 83.5 0956 68.9 0611 0.00 23.18 3.8 14.2 1635 NE | 34 508 0.171 67.3 90 55 30.11 0916 30.00 1601 12.7
11/9/21 84.0 1321 72.6 0719 0.00 23.18 3.2 13.4 0031 ENE | 62 313 0.113 66.2 80 53 30.11 0949 30.00 1446 12.7
11/8/21 81.9 1023 73.9 0246 0.00 23.18 6.4 21.8 1535 NNE | 30 410 0.157 66.4 81 59 30.12 0834 29.98 1509 12.7
11/7/21 83.4 1134 75.8 2241 0.00 23.18 6.4 22.4 0130 NE | 37 417 0.162 67.2 77 59 30.17 0939 30.05 1454 12.7
Max 87.7 - 76.2 - 7.07 - 7.6 32.3 - - 508 0.179 72.4 97 76 30.17 - 30.05 - 12.8
Avg - - - - - - 4.8 - - - - - 67.4 - - - - - - -
Min 74.5 - 61.9 - 0.00 - 2.4 10.4 - - 42 0.027 58.7 72 42 29.83 - 29.66 - 12.7